Time;durP1;ratioP1;P1;durP2;ratioP2;P2;SDS_P1;SDS_P2;PMS_P1;PMS_P2;Temp;Humidity;BMP_temperature;BMP_pressure;BME280_temperature;BME280_humidity;BME280_pressure;Samples;Min_cycle;Max_cycle;Signal;HPM_P1;HPM_P2
2021/04/27 12:09:43;;;;;;;47.15;45.25;;;;;;;;;;5091019;28;20945;-78
2021/04/27 12:12:11;;;;;;;54.20;51.60;;;;;;;;;;5091053;28;20198;-78
2021/04/27 12:14:37;;;;;;;56.22;53.63;;;;;;;;;;5089583;28;20171;-77
2021/04/27 12:17:03;;;;;;;53.88;51.65;;;;;;;;;;5090765;28;20167;-77
2021/04/27 12:19:29;;;;;;;49.40;47.42;;;;;;;;;;5090780;28;20755;-76
2021/04/27 12:22:02;;;;;;;48.90;46.90;;;;;;;;;;5090720;28;20167;-78
2021/04/27 12:24:34;;;;;;;46.05;44.13;;;;;;;;;;5091010;28;20197;-78
2021/04/27 12:27:08;;;;;;;48.03;46.08;;;;;;;;;;5091804;28;20160;-80
2021/04/27 12:29:36;;;;;;;47.60;45.70;;;;;;;;;;5090411;28;20211;-78
2021/04/27 12:32:05;;;;;;;49.45;47.42;;;;;;;;;;5090476;28;20164;-77
2021/04/27 12:34:31;;;;;;;51.88;49.78;;;;;;;;;;5090520;28;20176;-81
2021/04/27 12:36:57;;;;;;;49.65;47.65;;;;;;;;;;5090399;28;20214;-78
2021/04/27 12:39:23;;;;;;;52.70;50.55;;;;;;;;;;5090327;28;20207;-78
2021/04/27 12:41:53;;;;;;;52.10;49.90;;;;;;;;;;5090268;28;20196;-77
2021/04/27 12:44:28;;;;;;;47.53;45.58;;;;;;;;;;5090323;28;20163;-79
2021/04/27 12:46:54;;;;;;;48.95;46.95;;;;;;;;;;5090203;28;20167;-78
2021/04/27 12:49:28;;;;;;;48.97;46.92;;;;;;;;;;5088789;28;20282;-79
2021/04/27 12:51:57;;;;;;;48.33;46.40;;;;;;;;;;5090196;28;20621;-79
2021/04/27 12:54:28;;;;;;;49.67;47.58;;;;;;;;;;5089994;28;20248;-78
2021/04/27 12:57:04;;;;;;;49.30;47.28;;;;;;;;;;5090142;28;20160;-76
2021/04/27 12:59:30;;;;;;;47.75;45.70;;;;;;;;;;5090592;28;20195;-82
2021/04/27 13:02:00;;;;;;;46.90;45.00;;;;;;;;;;5090450;28;20179;-82
2021/04/27 13:04:30;;;;;;;53.00;50.83;;;;;;;;;;5089972;28;20168;-81
2021/04/27 13:06:56;;;;;;;52.05;49.85;;;;;;;;;;5091921;28;20175;-91
2021/04/27 13:09:27;;;;;;;52.45;50.30;;;;;;;;;;5094431;28;20247;-92
2021/04/27 13:11:56;;;;;;;55.15;52.85;;;;;;;;;;5096320;28;20510;-93
2021/04/27 13:14:23;;;;;;;58.60;56.15;;;;;;;;;;5092582;28;20160;-76
2021/04/27 13:16:52;;;;;;;57.15;54.63;;;;;;;;;;5089685;28;20172;-76
2021/04/27 13:19:18;;;;;;;63.08;60.40;;;;;;;;;;5085548;28;20175;-77
2021/04/27 13:22:04;;;;;;;62.38;59.70;;;;;;;;;;5074513;28;20271;-77
2021/04/27 13:24:43;;;;;;;61.03;58.45;;;;;;;;;;5075530;28;20648;-76
2021/04/27 13:27:10;;;;;;;66.38;63.40;;;;;;;;;;5075433;28;20172;-77
2021/04/27 13:29:37;;;;;;;67.07;64.20;;;;;;;;;;5075477;28;20290;-77
2021/04/27 13:32:23;;;;;;;66.97;64.13;;;;;;;;;;5075834;28;20192;-73
2021/04/27 13:34:49;;;;;;;67.65;64.75;;;;;;;;;;5074344;28;20191;-74
2021/04/27 13:37:16;;;;;;;71.00;67.90;;;;;;;;;;5075412;28;20172;-74
2021/04/27 13:39:42;;;;;;;68.57;65.68;;;;;;;;;;5075740;28;20243;-74
2021/04/27 13:42:08;;;;;;;76.85;73.55;;;;;;;;;;5075642;28;20519;-74
2021/04/27 13:44:34;;;;;;;80.47;77.00;;;;;;;;;;5074283;28;20172;-75
2021/04/27 13:47:01;;;;;;;87.45;83.68;;;;;;;;;;5074299;28;20684;-76
2021/04/27 13:49:27;;;;;;;87.20;83.43;;;;;;;;;;5075448;28;20231;-79
2021/04/27 13:51:53;;;;;;;81.88;78.28;;;;;;;;;;5075499;28;20200;-80
2021/04/27 13:54:19;;;;;;;78.47;74.93;;;;;;;;;;5074221;28;20168;-83
2021/04/27 13:56:45;;;;;;;91.60;87.65;;;;;;;;;;5075397;28;20179;-82
2021/04/27 13:59:11;;;;;;;100.55;95.97;;;;;;;;;;5075427;28;20605;-82
2021/04/27 14:01:37;;;;;;;110.97;106.13;;;;;;;;;;5075377;28;20164;-82
2021/04/27 14:04:07;;;;;;;99.13;94.68;;;;;;;;;;5075073;28;20175;-82
2021/04/27 14:06:34;;;;;;;96.85;92.65;;;;;;;;;;5074599;28;20164;-82
2021/04/27 14:09:00;;;;;;;88.30;84.45;;;;;;;;;;5080048;28;20286;-83
2021/04/27 14:11:26;;;;;;;96.60;92.38;;;;;;;;;;5077004;28;20216;-81
2021/04/27 14:13:52;;;;;;;106.10;101.47;;;;;;;;;;5073875;28;20577;-78
2021/04/27 14:16:18;;;;;;;103.78;99.25;;;;;;;;;;5074993;28;20175;-79
2021/04/27 14:18:44;;;;;;;98.90;94.60;;;;;;;;;;5074875;28;20203;-80
2021/04/27 14:21:10;;;;;;;129.88;124.13;;;;;;;;;;5074893;28;20164;-80
2021/04/27 14:23:36;;;;;;;147.00;140.27;;;;;;;;;;5074872;28;20255;-78
2021/04/27 14:26:02;;;;;;;141.50;135.10;;;;;;;;;;5074771;28;20191;-82
2021/04/27 14:28:28;;;;;;;147.20;140.60;;;;;;;;;;5074984;28;20505;-78
2021/04/27 14:30:54;;;;;;;155.82;148.88;;;;;;;;;;5074094;28;20176;-75
2021/04/27 14:33:20;;;;;;;167.80;160.27;;;;;;;;;;5074448;28;20247;-72
2021/04/27 14:35:46;;;;;;;160.13;152.77;;;;;;;;;;5074628;28;20207;-71
2021/04/27 14:38:12;;;;;;;168.55;160.98;;;;;;;;;;5074209;28;20188;-71
2021/04/27 14:40:39;;;;;;;174.90;167.05;;;;;;;;;;5074451;28;20171;-71
2021/04/27 14:43:06;;;;;;;194.15;185.50;;;;;;;;;;5074484;28;20167;-72
2021/04/27 14:45:32;;;;;;;178.98;170.93;;;;;;;;;;5074456;28;20172;-72
2021/04/27 14:47:59;;;;;;;162.32;155.02;;;;;;;;;;5074253;28;20209;-72
2021/04/27 14:50:26;;;;;;;185.20;176.95;;;;;;;;;;5074309;28;20179;-72
2021/04/27 14:52:52;;;;;;;171.18;163.50;;;;;;;;;;5072998;28;20172;-72
2021/04/27 14:55:19;;;;;;;174.02;166.23;;;;;;;;;;5074223;28;20175;-72
2021/04/27 14:57:45;;;;;;;186.18;177.82;;;;;;;;;;5072730;28;20200;-72
2021/04/27 15:00:12;;;;;;;194.02;185.38;;;;;;;;;;5074182;28;20621;-72
2021/04/27 15:02:39;;;;;;;187.68;179.25;;;;;;;;;;5074170;28;20250;-72
2021/04/27 15:05:06;;;;;;;187.93;179.48;;;;;;;;;;5074158;28;20172;-72
2021/04/27 15:07:32;;;;;;;200.93;191.77;;;;;;;;;;5073860;28;20695;-72
2021/04/27 15:09:58;;;;;;;177.80;169.88;;;;;;;;;;5073958;28;20188;-72
2021/04/27 15:12:24;;;;;;;196.40;187.48;;;;;;;;;;5073930;28;20167;-72
2021/04/27 15:14:49;;;;;;;205.63;196.48;;;;;;;;;;5073856;28;20172;-73
2021/04/27 15:17:15;;;;;;;195.90;187.20;;;;;;;;;;5076171;28;20176;-71
2021/04/27 15:19:41;;;;;;;239.98;229.27;;;;;;;;;;5074323;28;20198;-72
2021/04/27 15:22:07;;;;;;;228.98;218.82;;;;;;;;;;5073698;28;20522;-72
2021/04/27 15:24:34;;;;;;;245.13;234.23;;;;;;;;;;5073908;28;20168;-72
2021/04/27 15:27:02;;;;;;;195.45;186.70;;;;;;;;;;5073716;28;20660;-72
2021/04/27 15:29:28;;;;;;;198.10;189.07;;;;;;;;;;5073759;28;20621;-74
2021/04/27 15:31:55;;;;;;;248.23;237.20;;;;;;;;;;5073719;28;20175;-74
2021/04/27 15:34:22;;;;;;;230.13;219.90;;;;;;;;;;5073534;28;20637;-73
2021/04/27 15:36:48;;;;;;;202.88;193.68;;;;;;;;;;5073532;28;20178;-74
2021/04/27 15:39:14;;;;;;;220.68;210.75;;;;;;;;;;5072233;28;20554;-73
2021/04/27 15:41:41;;;;;;;216.05;206.45;;;;;;;;;;5073639;28;20160;-74
2021/04/27 15:44:10;;;;;;;231.43;221.13;;;;;;;;;;5073317;28;20495;-74
2021/04/27 15:46:37;;;;;;;241.10;230.35;;;;;;;;;;5073526;28;20160;-73
2021/04/27 15:49:04;;;;;;;219.80;209.98;;;;;;;;;;5073688;28;20209;-74
2021/04/27 15:51:30;;;;;;;222.80;212.90;;;;;;;;;;5073424;28;20175;-73
2021/04/27 15:53:56;;;;;;;234.75;224.27;;;;;;;;;;5073506;28;20203;-73
2021/04/27 15:56:22;;;;;;;222.18;212.25;;;;;;;;;;5073350;28;20172;-73
2021/04/27 15:58:48;;;;;;;224.30;214.18;;;;;;;;;;5073229;28;20742;-74
2021/04/27 16:01:14;;;;;;;217.00;207.23;;;;;;;;;;5073308;28;20220;-74
2021/04/27 16:03:41;;;;;;;221.02;211.13;;;;;;;;;;5073285;28;20175;-73
2021/04/27 16:06:07;;;;;;;238.23;227.45;;;;;;;;;;5073280;28;20537;-74
2021/04/27 16:08:33;;;;;;;219.23;209.40;;;;;;;;;;5073510;28;20212;-74
2021/04/27 16:10:59;;;;;;;213.93;204.13;;;;;;;;;;5073270;28;20192;-73
2021/04/27 16:13:25;;;;;;;206.18;196.90;;;;;;;;;;5073201;28;20323;-73
2021/04/27 16:15:51;;;;;;;210.25;200.73;;;;;;;;;;5073129;28;20192;-73
2021/04/27 16:18:17;;;;;;;228.45;218.15;;;;;;;;;;5072985;28;20671;-73
2021/04/27 16:20:43;;;;;;;217.73;207.88;;;;;;;;;;5072961;28;20187;-73
2021/04/27 16:23:09;;;;;;;218.18;208.38;;;;;;;;;;5073083;28;20164;-73
2021/04/27 16:25:35;;;;;;;220.60;210.63;;;;;;;;;;5073091;28;20617;-73
2021/04/27 16:28:01;;;;;;;239.43;228.68;;;;;;;;;;5072986;28;20265;-73
2021/04/27 16:30:27;;;;;;;204.07;194.93;;;;;;;;;;5072976;28;20164;-73
2021/04/27 16:32:53;;;;;;;254.75;243.27;;;;;;;;;;5072926;28;20645;-73
2021/04/27 16:35:19;;;;;;;234.70;224.23;;;;;;;;;;5072925;28;20168;-73
2021/04/27 16:37:45;;;;;;;263.92;252.10;;;;;;;;;;5072085;28;20184;-73
2021/04/27 16:40:12;;;;;;;233.27;222.93;;;;;;;;;;5070851;28;20515;-74
2021/04/27 16:42:41;;;;;;;211.75;202.13;;;;;;;;;;5071956;28;20674;-73
2021/04/27 16:45:08;;;;;;;213.45;203.88;;;;;;;;;;5072506;28;20160;-68
2021/04/27 16:47:34;;;;;;;221.75;211.82;;;;;;;;;;5072580;28;20222;-67
2021/04/27 16:50:00;;;;;;;247.88;236.85;;;;;;;;;;5072622;28;20156;-67
2021/04/27 16:52:26;;;;;;;269.50;257.23;;;;;;;;;;5071466;28;20636;-69
2021/04/27 16:54:52;;;;;;;275.42;263.15;;;;;;;;;;5072694;28;20197;-72
2021/04/27 16:57:18;;;;;;;268.58;256.63;;;;;;;;;;5075968;28;20164;-68
2021/04/27 16:59:45;;;;;;;282.15;269.55;;;;;;;;;;5075750;28;20286;-68
2021/04/27 17:02:12;;;;;;;267.02;255.10;;;;;;;;;;5074958;28;20180;-68
2021/04/27 17:04:38;;;;;;;265.90;254.00;;;;;;;;;;5076109;28;20192;-68
2021/04/27 17:07:04;;;;;;;270.10;258.00;;;;;;;;;;5076229;28;20243;-68
2021/04/27 17:09:30;;;;;;;268.90;256.95;;;;;;;;;;5075974;28;20310;-68
2021/04/27 17:11:56;;;;;;;252.25;241.05;;;;;;;;;;5076114;28;20176;-68
2021/04/27 17:14:22;;;;;;;264.02;252.18;;;;;;;;;;5076055;28;20172;-68
2021/04/27 17:16:48;;;;;;;261.83;250.18;;;;;;;;;;5075910;28;20175;-68
2021/04/27 17:19:14;;;;;;;254.95;243.55;;;;;;;;;;5075953;28;20199;-68
2021/04/27 17:21:40;;;;;;;241.90;231.05;;;;;;;;;;5075930;28;20495;-67
2021/04/27 17:24:06;;;;;;;208.60;199.30;;;;;;;;;;5074591;28;20176;-68
2021/04/27 17:26:32;;;;;;;241.82;230.98;;;;;;;;;;5075869;28;20164;-67
2021/04/27 17:28:58;;;;;;;262.52;250.77;;;;;;;;;;5075796;28;20178;-67
2021/04/27 17:31:24;;;;;;;247.65;236.57;;;;;;;;;;5075647;28;20171;-67
2021/04/27 17:33:50;;;;;;;254.65;243.25;;;;;;;;;;5075708;28;20192;-68
2021/04/27 17:36:16;;;;;;;262.35;250.63;;;;;;;;;;5075701;28;20284;-68
2021/04/27 17:38:42;;;;;;;237.02;226.40;;;;;;;;;;5075530;28;20199;-67
2021/04/27 17:41:08;;;;;;;239.25;228.50;;;;;;;;;;5075613;28;20170;-68
2021/04/27 17:43:34;;;;;;;246.88;235.52;;;;;;;;;;5075637;28;20520;-68
2021/04/27 17:46:00;;;;;;;167.45;159.88;;;;;;;;;;5075469;28;20226;-67
